Terminal Aerodrome Forecast
Issued by NWS Sioux Falls, SD

Home | Current Version | Previous Version | Graphics & Text | Print | Product List | Glossary Off
Versions: 1 2 3 4 5 6 7 8 9 10 11 12 13 14 15

274
FTUS43 KFSD 300521
TAFFSD
TAF
KFSD 300521Z 3006/3106 07012KT P6SM OVC012
     FM300800 05011KT P6SM OVC008
     FM301400 05012KT P6SM OVC010
     FM302000 05013KT P6SM BKN020=

USA.gov is the U.S. government's official web portal to all federal, state and local government web resources and services.